sensor_id;sensor_type;location;lat;lon;timestamp;pressure;altitude;pressure_sealevel;temperature;humidity
10806;BME280;5455;53.224;6.000;2023-07-28T00:00:38;100287.63;;;19.17;100.00
10806;BME280;5455;53.224;6.000;2023-07-28T00:03:06;100284.88;;;19.14;100.00
10806;BME280;5455;53.224;6.000;2023-07-28T00:05:34;100280.09;;;19.14;100.00
10806;BME280;5455;53.224;6.000;2023-07-28T00:08:02;100282.53;;;19.12;100.00
10806;BME280;5455;53.224;6.000;2023-07-28T00:10:29;100284.53;;;19.12;100.00
10806;BME280;5455;53.224;6.000;2023-07-28T00:12:56;100276.59;;;19.10;100.00
10806;BME280;5455;53.224;6.000;2023-07-28T00:15:25;100266.69;;;19.06;100.00
10806;BME280;5455;53.224;6.000;2023-07-28T00:17:52;100271.34;;;19.12;100.00
10806;BME280;5455;53.224;6.000;2023-07-28T00:20:20;100275.38;;;19.11;100.00
10806;BME280;5455;53.224;6.000;2023-07-28T00:22:47;100275.44;;;19.08;100.00
10806;BME280;5455;53.224;6.000;2023-07-28T00:25:14;100276.50;;;19.14;100.00
10806;BME280;5455;53.224;6.000;2023-07-28T00:27:41;100281.75;;;19.12;100.00
10806;BME280;5455;53.224;6.000;2023-07-28T00:30:10;100274.56;;;19.11;100.00
10806;BME280;5455;53.224;6.000;2023-07-28T00:32:37;100276.09;;;19.15;100.00
10806;BME280;5455;53.224;6.000;2023-07-28T00:35:05;100277.69;;;19.16;100.00
10806;BME280;5455;53.224;6.000;2023-07-28T00:37:33;100273.38;;;19.12;100.00
10806;BME280;5455;53.224;6.000;2023-07-28T00:40:00;100275.81;;;19.10;100.00
10806;BME280;5455;53.224;6.000;2023-07-28T00:42:28;100278.59;;;19.10;100.00
10806;BME280;5455;53.224;6.000;2023-07-28T00:44:55;100279.41;;;19.10;100.00
10806;BME280;5455;53.224;6.000;2023-07-28T00:47:24;100280.09;;;19.14;100.00
10806;BME280;5455;53.224;6.000;2023-07-28T00:49:51;100286.47;;;19.15;100.00
10806;BME280;5455;53.224;6.000;2023-07-28T00:52:18;100274.56;;;19.11;100.00
10806;BME280;5455;53.224;6.000;2023-07-28T00:54:46;100278.59;;;19.10;100.00
10806;BME280;5455;53.224;6.000;2023-07-28T00:57:13;100281.81;;;19.08;100.00
10806;BME280;5455;53.224;6.000;2023-07-28T00:59:40;100271.94;;;19.04;100.00
10806;BME280;5455;53.224;6.000;2023-07-28T01:02:07;100273.50;;;19.05;100.00
10806;BME280;5455;53.224;6.000;2023-07-28T01:04:34;100283.91;;;19.04;100.00
10806;BME280;5455;53.224;6.000;2023-07-28T01:07:09;100281.13;;;19.04;100.00
10806;BME280;5455;53.224;6.000;2023-07-28T01:12:13;100270.72;;;19.05;100.00
10806;BME280;5455;53.224;6.000;2023-07-28T01:14:41;100268.34;;;19.03;100.00
10806;BME280;5455;53.224;6.000;2023-07-28T01:17:08;100272.28;;;19.06;100.00
10806;BME280;5455;53.224;6.000;2023-07-28T01:19:35;100273.09;;;19.06;100.00
10806;BME280;5455;53.224;6.000;2023-07-28T01:22:16;100273.50;;;19.05;100.00
10806;BME280;5455;53.224;6.000;2023-07-28T01:25:06;100274.75;;;19.04;100.00
10806;BME280;5455;53.224;6.000;2023-07-28T01:27:39;100279.94;;;19.02;100.00
10806;BME280;5455;53.224;6.000;2023-07-28T01:30:10;100269.63;;;18.99;100.00
10806;BME280;5455;53.224;6.000;2023-07-28T01:32:38;100272.34;;;19.02;100.00
10806;BME280;5455;53.224;6.000;2023-07-28T01:35:05;100274.00;;;19.00;100.00
10806;BME280;5455;53.224;6.000;2023-07-28T01:37:33;100277.94;;;19.02;100.00
10806;BME280;5455;53.224;6.000;2023-07-28T01:40:01;100270.41;;;18.99;100.00
10806;BME280;5455;53.224;6.000;2023-07-28T01:42:28;100275.59;;;19.01;100.00
10806;BME280;5455;53.224;6.000;2023-07-28T01:44:56;100280.41;;;19.00;100.00
10806;BME280;5455;53.224;6.000;2023-07-28T01:47:23;100273.22;;;18.99;100.00
10806;BME280;5455;53.224;6.000;2023-07-28T01:49:52;100283.59;;;18.99;100.00
10806;BME280;5455;53.224;6.000;2023-07-28T01:52:19;100271.72;;;18.95;100.00
10806;BME280;5455;53.224;6.000;2023-07-28T01:54:46;100270.06;;;18.97;100.00
10806;BME280;5455;53.224;6.000;2023-07-28T01:57:13;100272.06;;;18.97;100.00
10806;BME280;5455;53.224;6.000;2023-07-28T01:59:41;100280.53;;;18.93;100.00
10806;BME280;5455;53.224;6.000;2023-07-28T02:02:09;100281.75;;;18.92;100.00
10806;BME280;5455;53.224;6.000;2023-07-28T02:04:36;100278.19;;;18.92;100.00
10806;BME280;5455;53.224;6.000;2023-07-28T02:07:03;100279.03;;;18.89;100.00
10806;BME280;5455;53.224;6.000;2023-07-28T02:09:30;100284.63;;;18.89;100.00
10806;BME280;5455;53.224;6.000;2023-07-28T02:11:58;100286.97;;;18.90;100.00
10806;BME280;5455;53.224;6.000;2023-07-28T02:14:25;100276.66;;;18.87;100.00
10806;BME280;5455;53.224;6.000;2023-07-28T02:16:53;100281.38;;;18.90;100.00
10806;BME280;5455;53.224;6.000;2023-07-28T02:19:20;100285.75;;;18.91;100.00
10806;BME280;5455;53.224;6.000;2023-07-28T02:21:48;100279.81;;;18.89;100.00
10806;BME280;5455;53.224;6.000;2023-07-28T02:24:15;100285.69;;;18.95;100.00
10806;BME280;5455;53.224;6.000;2023-07-28T02:26:42;100288.50;;;18.95;100.00
10806;BME280;5455;53.224;6.000;2023-07-28T02:29:10;100278.19;;;18.92;100.00
10806;BME280;5455;53.224;6.000;2023-07-28T02:31:37;100279.44;;;18.87;100.00
10806;BME280;5455;53.224;6.000;2023-07-28T02:34:05;100274.66;;;18.88;100.00
10806;BME280;5455;53.224;6.000;2023-07-28T02:36:32;100277.44;;;18.88;100.00
10806;BME280;5455;53.224;6.000;2023-07-28T02:39:00;100279.38;;;18.91;100.00
10806;BME280;5455;53.224;6.000;2023-07-28T02:41:27;100283.03;;;18.88;100.00
10806;BME280;5455;53.224;6.000;2023-07-28T02:43:55;100282.63;;;18.89;100.00
10806;BME280;5455;53.224;6.000;2023-07-28T02:46:23;100285.03;;;18.87;100.00
10806;BME280;5455;53.224;6.000;2023-07-28T02:48:53;100277.97;;;18.83;100.00
10806;BME280;5455;53.224;6.000;2023-07-28T02:51:20;100281.44;;;18.87;100.00
10806;BME280;5455;53.224;6.000;2023-07-28T02:53:47;100294.72;;;18.83;100.00
10806;BME280;5455;53.224;6.000;2023-07-28T02:56:14;100292.78;;;18.80;100.00
10806;BME280;5455;53.224;6.000;2023-07-28T02:58:42;100303.09;;;18.83;100.00
10806;BME280;5455;53.224;6.000;2023-07-28T03:01:09;100304.66;;;18.84;100.00
10806;BME280;5455;53.224;6.000;2023-07-28T03:03:37;100306.25;;;18.85;100.00
10806;BME280;5455;53.224;6.000;2023-07-28T03:06:04;100314.56;;;18.88;100.00
10806;BME280;5455;53.224;6.000;2023-07-28T03:08:34;100318.22;;;18.85;100.00
10806;BME280;5455;53.224;6.000;2023-07-28T03:11:27;100311.31;;;18.90;100.00
10806;BME280;5455;53.224;6.000;2023-07-28T03:13:54;100316.84;;;18.93;100.00
10806;BME280;5455;53.224;6.000;2023-07-28T03:16:22;100322.09;;;18.91;100.00
10806;BME280;5455;53.224;6.000;2023-07-28T03:18:49;100321.56;;;18.96;100.00
10806;BME280;5455;53.224;6.000;2023-07-28T03:21:17;100321.22;;;18.94;100.00
10806;BME280;5455;53.224;6.000;2023-07-28T03:23:43;100326.75;;;18.98;100.00
10806;BME280;5455;53.224;6.000;2023-07-28T03:26:11;100316.00;;;18.96;100.00
10806;BME280;5455;53.224;6.000;2023-07-28T03:28:38;100318.38;;;18.98;100.00
10806;BME280;5455;53.224;6.000;2023-07-28T03:31:05;100323.56;;;18.96;100.00
10806;BME280;5455;53.224;6.000;2023-07-28T03:33:33;100325.16;;;18.97;100.00
10806;BME280;5455;53.224;6.000;2023-07-28T03:36:00;100320.03;;;18.95;100.00
10806;BME280;5455;53.224;6.000;2023-07-28T03:38:28;100320.78;;;18.96;100.00
10806;BME280;5455;53.224;6.000;2023-07-28T03:40:55;100320.03;;;18.95;100.00
10806;BME280;5455;53.224;6.000;2023-07-28T03:43:22;100328.31;;;18.99;100.00
10806;BME280;5455;53.224;6.000;2023-07-28T03:45:49;100329.53;;;18.98;100.00
10806;BME280;5455;53.224;6.000;2023-07-28T03:48:16;100323.97;;;18.98;100.00
10806;BME280;5455;53.224;6.000;2023-07-28T03:50:44;100333.91;;;18.99;100.00
10806;BME280;5455;53.224;6.000;2023-07-28T03:53:10;100329.91;;;19.00;100.00
10806;BME280;5455;53.224;6.000;2023-07-28T03:55:39;100333.03;;;19.02;100.00
10806;BME280;5455;53.224;6.000;2023-07-28T03:58:06;100334.22;;;19.04;100.00
10806;BME280;5455;53.224;6.000;2023-07-28T04:00:34;100333.78;;;19.06;100.00
10806;BME280;5455;53.224;6.000;2023-07-28T04:03:01;100337.78;;;19.05;100.00
10806;BME280;5455;53.224;6.000;2023-07-28T04:05:28;100333.50;;;19.00;100.00
10806;BME280;5455;53.224;6.000;2023-07-28T04:07:55;100339.44;;;19.02;100.00
10806;BME280;5455;53.224;6.000;2023-07-28T04:10:23;100339.81;;;19.04;100.00
10806;BME280;5455;53.224;6.000;2023-07-28T04:12:51;100336.56;;;19.06;100.00
10806;BME280;5455;53.224;6.000;2023-07-28T04:15:18;100343.34;;;19.05;100.00
10806;BME280;5455;53.224;6.000;2023-07-28T04:17:45;100349.03;;;19.01;100.00
10806;BME280;5455;53.224;6.000;2023-07-28T04:20:13;100347.81;;;19.02;100.00
10806;BME280;5455;53.224;6.000;2023-07-28T04:22:40;100344.22;;;19.02;100.00
10806;BME280;5455;53.224;6.000;2023-07-28T04:25:07;100353.41;;;19.02;100.00
10806;BME280;5455;53.224;6.000;2023-07-28T04:27:37;100352.97;;;19.04;100.00
10806;BME280;5455;53.224;6.000;2023-07-28T04:30:05;100353.78;;;19.04;100.00
10806;BME280;5455;53.224;6.000;2023-07-28T04:32:33;100356.97;;;19.03;100.00
10806;BME280;5455;53.224;6.000;2023-07-28T04:35:08;100354.19;;;19.03;100.00
10806;BME280;5455;53.224;6.000;2023-07-28T04:37:56;100360.13;;;19.05;100.00
10806;BME280;5455;53.224;6.000;2023-07-28T04:40:35;100358.91;;;19.06;100.00
10806;BME280;5455;53.224;6.000;2023-07-28T04:43:02;100366.44;;;19.09;100.00
10806;BME280;5455;53.224;6.000;2023-07-28T04:45:29;100360.84;;;19.09;100.00
10806;BME280;5455;53.224;6.000;2023-07-28T04:48:00;100366.38;;;19.12;100.00
10806;BME280;5455;53.224;6.000;2023-07-28T04:50:28;100371.13;;;19.15;100.00
10806;BME280;5455;53.224;6.000;2023-07-28T04:53:28;100375.91;;;19.15;100.00
10806;BME280;5455;53.224;6.000;2023-07-28T04:56:02;100365.59;;;19.12;100.00
10806;BME280;5455;53.224;6.000;2023-07-28T04:58:30;100380.66;;;19.18;100.00
10806;BME280;5455;53.224;6.000;2023-07-28T05:01:00;100382.81;;;19.10;100.00
10806;BME280;5455;53.224;6.000;2023-07-28T05:03:31;100375.84;;;19.18;100.00
10806;BME280;5455;53.224;6.000;2023-07-28T05:06:11;100377.00;;;19.21;100.00
10806;BME280;5455;53.224;6.000;2023-07-28T05:08:38;100389.75;;;19.22;100.00
10806;BME280;5455;53.224;6.000;2023-07-28T05:11:06;100386.91;;;19.25;100.00
10806;BME280;5455;53.224;6.000;2023-07-28T05:13:33;100394.00;;;19.30;100.00
10806;BME280;5455;53.224;6.000;2023-07-28T05:16:00;100398.72;;;19.33;100.00
10806;BME280;5455;53.224;6.000;2023-07-28T05:18:48;100395.19;;;19.29;100.00
10806;BME280;5455;53.224;6.000;2023-07-28T05:21:29;100397.66;;;19.27;100.00
10806;BME280;5455;53.224;6.000;2023-07-28T05:23:56;100405.69;;;19.25;100.00
10806;BME280;5455;53.224;6.000;2023-07-28T05:26:24;100400.38;;;19.31;100.00
10806;BME280;5455;53.224;6.000;2023-07-28T05:28:51;100400.66;;;19.36;100.00
10806;BME280;5455;53.224;6.000;2023-07-28T05:31:18;100405.09;;;19.34;100.00
10806;BME280;5455;53.224;6.000;2023-07-28T05:33:46;100397.03;;;19.39;100.00
10806;BME280;5455;53.224;6.000;2023-07-28T05:36:14;100399.31;;;19.44;100.00
10806;BME280;5455;53.224;6.000;2023-07-28T05:38:41;100398.47;;;19.47;100.00
10806;BME280;5455;53.224;6.000;2023-07-28T05:41:08;100400.41;;;19.50;100.00
10806;BME280;5455;53.224;6.000;2023-07-28T05:43:36;100413.09;;;19.55;100.00
10806;BME280;5455;53.224;6.000;2023-07-28T05:46:03;100404.25;;;19.56;100.00
10806;BME280;5455;53.224;6.000;2023-07-28T05:48:34;100397.53;;;19.54;100.00
10806;BME280;5455;53.224;6.000;2023-07-28T05:51:01;100401.06;;;19.58;100.00
10806;BME280;5455;53.224;6.000;2023-07-28T05:53:32;100418.25;;;19.56;100.00
10806;BME280;5455;53.224;6.000;2023-07-28T05:56:03;100414.59;;;19.59;100.00
10806;BME280;5455;53.224;6.000;2023-07-28T05:58:32;100414.16;;;19.61;100.00
10806;BME280;5455;53.224;6.000;2023-07-28T06:01:00;100414.97;;;19.61;100.00
10806;BME280;5455;53.224;6.000;2023-07-28T06:03:48;100419.38;;;19.59;100.00
10806;BME280;5455;53.224;6.000;2023-07-28T06:06:22;100422.50;;;19.64;100.00
10806;BME280;5455;53.224;6.000;2023-07-28T06:08:49;100419.41;;;19.78;100.00
10806;BME280;5455;53.224;6.000;2023-07-28T06:11:25;100421.53;;;19.91;100.00
10806;BME280;5455;53.224;6.000;2023-07-28T06:13:53;100434.13;;;19.99;100.00
10806;BME280;5455;53.224;6.000;2023-07-28T06:16:22;100440.44;;;20.03;100.00
10806;BME280;5455;53.224;6.000;2023-07-28T06:18:50;100438.44;;;20.03;100.00
10806;BME280;5455;53.224;6.000;2023-07-28T06:21:22;100441.59;;;20.05;100.00
10806;BME280;5455;53.224;6.000;2023-07-28T06:23:49;100438.00;;;20.05;100.00
10806;BME280;5455;53.224;6.000;2023-07-28T06:26:23;100445.00;;;20.13;100.00
10806;BME280;5455;53.224;6.000;2023-07-28T06:28:50;100436.13;;;20.18;100.00
10806;BME280;5455;53.224;6.000;2023-07-28T06:31:18;100445.44;;;20.31;100.00
10806;BME280;5455;53.224;6.000;2023-07-28T06:33:46;100437.06;;;20.47;100.00
10806;BME280;5455;53.224;6.000;2023-07-28T06:36:14;100442.50;;;20.54;100.00
10806;BME280;5455;53.224;6.000;2023-07-28T06:38:41;100454.47;;;20.71;100.00
10806;BME280;5455;53.224;6.000;2023-07-28T06:41:15;100461.47;;;20.79;100.00
10806;BME280;5455;53.224;6.000;2023-07-28T06:43:45;100464.47;;;20.88;100.00
10806;BME280;5455;53.224;6.000;2023-07-28T06:46:12;100468.41;;;20.91;100.00
10806;BME280;5455;53.224;6.000;2023-07-28T06:48:40;100475.84;;;20.97;100.00
10806;BME280;5455;53.224;6.000;2023-07-28T06:51:07;100479.81;;;21.00;100.00
10806;BME280;5455;53.224;6.000;2023-07-28T06:53:34;100483.06;;;21.14;100.00
10806;BME280;5455;53.224;6.000;2023-07-28T06:56:02;100488.75;;;21.11;100.00
10806;BME280;5455;53.224;6.000;2023-07-28T06:58:38;100486.28;;;21.13;100.00
10806;BME280;5455;53.224;6.000;2023-07-28T07:01:05;100485.06;;;21.14;100.00
10806;BME280;5455;53.224;6.000;2023-07-28T07:03:33;100489.97;;;21.10;100.00
10806;BME280;5455;53.224;6.000;2023-07-28T07:06:00;100493.72;;;20.87;100.00
10806;BME280;5455;53.224;6.000;2023-07-28T07:08:28;100499.16;;;20.94;100.00
10806;BME280;5455;53.224;6.000;2023-07-28T07:10:55;100498.63;;;20.99;100.00
10806;BME280;5455;53.224;6.000;2023-07-28T07:13:23;100512.31;;;21.13;100.00
10806;BME280;5455;53.224;6.000;2023-07-28T07:15:51;100508.97;;;21.18;100.00
10806;BME280;5455;53.224;6.000;2023-07-28T07:18:18;100505.38;;;20.85;100.00
10806;BME280;5455;53.224;6.000;2023-07-28T07:20:46;100510.28;;;20.81;100.00
10806;BME280;5455;53.224;6.000;2023-07-28T07:23:13;100512.81;;;20.92;100.00
10806;BME280;5455;53.224;6.000;2023-07-28T07:25:40;100518.50;;;20.88;100.00
10806;BME280;5455;53.224;6.000;2023-07-28T07:28:08;100519.94;;;20.97;100.00
10806;BME280;5455;53.224;6.000;2023-07-28T07:30:40;100529.91;;;20.98;100.00
10806;BME280;5455;53.224;6.000;2023-07-28T07:33:10;100528.00;;;21.11;100.00
10806;BME280;5455;53.224;6.000;2023-07-28T07:35:37;100540.00;;;21.11;100.00
10806;BME280;5455;53.224;6.000;2023-07-28T07:38:05;100539.97;;;20.95;100.00
10806;BME280;5455;53.224;6.000;2023-07-28T07:40:36;100546.53;;;20.88;100.00
10806;BME280;5455;53.224;6.000;2023-07-28T07:43:04;100544.94;;;20.71;100.00
10806;BME280;5455;53.224;6.000;2023-07-28T07:45:32;100547.47;;;20.66;100.00
10806;BME280;5455;53.224;6.000;2023-07-28T07:48:00;100554.81;;;20.60;100.00
10806;BME280;5455;53.224;6.000;2023-07-28T07:50:28;100549.81;;;20.51;100.00
10806;BME280;5455;53.224;6.000;2023-07-28T07:52:58;100551.75;;;20.54;100.00
10806;BME280;5455;53.224;6.000;2023-07-28T07:55:26;100554.47;;;20.58;100.00
10806;BME280;5455;53.224;6.000;2023-07-28T07:57:53;100563.94;;;20.64;100.00
10806;BME280;5455;53.224;6.000;2023-07-28T08:00:21;100558.81;;;20.78;100.00
10806;BME280;5455;53.224;6.000;2023-07-28T08:02:48;100572.56;;;21.05;100.00
10806;BME280;5455;53.224;6.000;2023-07-28T08:05:15;100571.75;;;21.08;100.00
10806;BME280;5455;53.224;6.000;2023-07-28T08:07:43;100566.19;;;21.05;100.00
10806;BME280;5455;53.224;6.000;2023-07-28T08:10:11;100569.50;;;21.00;100.00
10806;BME280;5455;53.224;6.000;2023-07-28T08:12:38;100579.13;;;20.99;100.00
10806;BME280;5455;53.224;6.000;2023-07-28T08:15:05;100579.66;;;20.94;100.00
10806;BME280;5455;53.224;6.000;2023-07-28T08:17:32;100577.03;;;20.86;100.00
10806;BME280;5455;53.224;6.000;2023-07-28T08:20:03;100581.13;;;20.82;100.00
10806;BME280;5455;53.224;6.000;2023-07-28T08:22:30;100581.13;;;20.82;100.00
10806;BME280;5455;53.224;6.000;2023-07-28T08:24:58;100573.44;;;20.86;100.00
10806;BME280;5455;53.224;6.000;2023-07-28T08:27:25;100575.69;;;21.11;100.00
10806;BME280;5455;53.224;6.000;2023-07-28T08:29:53;100574.03;;;21.29;100.00
10806;BME280;5455;53.224;6.000;2023-07-28T08:32:20;100589.78;;;21.39;100.00
10806;BME280;5455;53.224;6.000;2023-07-28T08:34:49;100592.16;;;21.41;100.00
10806;BME280;5455;53.224;6.000;2023-07-28T08:37:16;100593.44;;;21.53;100.00
10806;BME280;5455;53.224;6.000;2023-07-28T08:39:43;100596.34;;;21.49;100.00
10806;BME280;5455;53.224;6.000;2023-07-28T08:42:11;100601.53;;;21.51;100.00
10806;BME280;5455;53.224;6.000;2023-07-28T08:44:38;100597.38;;;21.71;100.00
10806;BME280;5455;53.224;6.000;2023-07-28T08:47:05;100598.50;;;22.19;100.00
10806;BME280;5455;53.224;6.000;2023-07-28T08:49:35;100602.25;;;22.70;100.00
10806;BME280;5455;53.224;6.000;2023-07-28T08:52:04;100601.91;;;23.05;100.00
10806;BME280;5455;53.224;6.000;2023-07-28T08:54:32;100597.19;;;23.15;100.00
10806;BME280;5455;53.224;6.000;2023-07-28T08:56:59;100606.22;;;23.10;100.00
10806;BME280;5455;53.224;6.000;2023-07-28T08:59:29;100607.09;;;23.07;100.00
10806;BME280;5455;53.224;6.000;2023-07-28T09:01:57;100602.13;;;23.11;100.00
10806;BME280;5455;53.224;6.000;2023-07-28T09:04:26;100603.47;;;23.32;100.00
10806;BME280;5455;53.224;6.000;2023-07-28T09:06:54;100604.28;;;23.45;100.00
10806;BME280;5455;53.224;6.000;2023-07-28T09:09:22;100617.03;;;23.71;100.00
10806;BME280;5455;53.224;6.000;2023-07-28T09:11:52;100604.22;;;23.70;100.00
10806;BME280;5455;53.224;6.000;2023-07-28T09:14:21;100606.59;;;23.59;100.00
10806;BME280;5455;53.224;6.000;2023-07-28T09:19:35;100607.53;;;23.18;100.00
10806;BME280;5455;53.224;6.000;2023-07-28T09:22:05;100616.84;;;22.77;100.00
10806;BME280;5455;53.224;6.000;2023-07-28T09:24:32;100610.25;;;22.96;100.00
10806;BME280;5455;53.224;6.000;2023-07-28T09:27:01;100608.13;;;23.00;100.00
10806;BME280;5455;53.224;6.000;2023-07-28T09:29:29;100627.22;;;23.18;100.00
10806;BME280;5455;53.224;6.000;2023-07-28T09:32:05;100618.13;;;23.39;100.00
10806;BME280;5455;53.224;6.000;2023-07-28T09:34:33;100627.44;;;23.36;100.00
10806;BME280;5455;53.224;6.000;2023-07-28T09:37:00;100619.81;;;23.12;100.00
10806;BME280;5455;53.224;6.000;2023-07-28T09:39:28;100629.16;;;23.21;100.00
10806;BME280;5455;53.224;6.000;2023-07-28T09:41:56;100628.41;;;23.68;100.00
10806;BME280;5455;53.224;6.000;2023-07-28T09:44:25;100628.44;;;24.02;100.00
10806;BME280;5455;53.224;6.000;2023-07-28T09:46:56;100635.78;;;23.99;100.00
10806;BME280;5455;53.224;6.000;2023-07-28T09:49:29;100636.75;;;24.05;100.00
10806;BME280;5455;53.224;6.000;2023-07-28T09:52:04;100631.88;;;23.84;100.00
10806;BME280;5455;53.224;6.000;2023-07-28T09:54:38;100634.50;;;23.66;100.00
10806;BME280;5455;53.224;6.000;2023-07-28T09:57:12;100632.56;;;23.88;100.00
10806;BME280;5455;53.224;6.000;2023-07-28T09:59:42;100624.16;;;24.53;100.00
10806;BME280;5455;53.224;6.000;2023-07-28T10:02:09;100645.28;;;24.80;100.00
10806;BME280;5455;53.224;6.000;2023-07-28T10:04:37;100630.72;;;24.50;100.00
10806;BME280;5455;53.224;6.000;2023-07-28T10:07:05;100626.56;;;24.64;100.00
10806;BME280;5455;53.224;6.000;2023-07-28T10:09:34;100629.72;;;24.66;100.00
10806;BME280;5455;53.224;6.000;2023-07-28T10:12:04;100641.75;;;24.66;100.00
10806;BME280;5455;53.224;6.000;2023-07-28T10:14:36;100635.56;;;24.50;100.00
10806;BME280;5455;53.224;6.000;2023-07-28T10:17:15;100636.03;;;24.27;100.00
10806;BME280;5455;53.224;6.000;2023-07-28T10:19:43;100644.13;;;24.25;100.00
10806;BME280;5455;53.224;6.000;2023-07-28T10:22:11;100645.47;;;24.33;100.00
10806;BME280;5455;53.224;6.000;2023-07-28T10:25:00;100646.31;;;24.21;100.00
10806;BME280;5455;53.224;6.000;2023-07-28T10:27:38;100649.06;;;24.33;100.00
10806;BME280;5455;53.224;6.000;2023-07-28T10:30:12;100650.56;;;24.68;100.00
10806;BME280;5455;53.224;6.000;2023-07-28T10:32:42;100654.81;;;24.73;100.00
10806;BME280;5455;53.224;6.000;2023-07-28T10:37:44;100649.97;;;24.74;100.00
10806;BME280;5455;53.224;6.000;2023-07-28T10:40:34;100651.44;;;24.56;100.00
10806;BME280;5455;53.224;6.000;2023-07-28T10:43:03;100651.25;;;24.51;100.00
10806;BME280;5455;53.224;6.000;2023-07-28T10:45:32;100659.63;;;24.42;100.00
10806;BME280;5455;53.224;6.000;2023-07-28T10:48:00;100651.84;;;24.77;100.00
10806;BME280;5455;53.224;6.000;2023-07-28T10:50:31;100660.94;;;25.33;100.00
10806;BME280;5455;53.224;6.000;2023-07-28T10:52:59;100657.91;;;24.88;100.00
10806;BME280;5455;53.224;6.000;2023-07-28T10:55:27;100652.94;;;24.48;100.00
10806;BME280;5455;53.224;6.000;2023-07-28T10:57:55;100650.56;;;24.25;100.00
10806;BME280;5455;53.224;6.000;2023-07-28T11:00:25;100658.38;;;24.64;100.00
10806;BME280;5455;53.224;6.000;2023-07-28T11:02:54;100655.06;;;24.88;100.00
10806;BME280;5455;53.224;6.000;2023-07-28T11:05:24;100669.22;;;25.28;100.00
10806;BME280;5455;53.224;6.000;2023-07-28T11:08:02;100666.16;;;25.44;100.00
10806;BME280;5455;53.224;6.000;2023-07-28T11:10:30;100668.47;;;25.76;100.00
10806;BME280;5455;53.224;6.000;2023-07-28T11:12:59;100673.25;;;26.24;100.00
10806;BME280;5455;53.224;6.000;2023-07-28T11:15:37;100681.09;;;26.39;100.00
10806;BME280;5455;53.224;6.000;2023-07-28T11:18:04;100668.84;;;26.42;100.00
10806;BME280;5455;53.224;6.000;2023-07-28T11:20:34;100671.50;;;26.63;100.00
10806;BME280;5455;53.224;6.000;2023-07-28T11:23:03;100675.28;;;26.51;100.00
10806;BME280;5455;53.224;6.000;2023-07-28T11:25:32;100669.47;;;26.37;100.00
10806;BME280;5455;53.224;6.000;2023-07-28T11:28:03;100673.69;;;26.59;100.00
10806;BME280;5455;53.224;6.000;2023-07-28T11:30:36;100680.94;;;26.42;100.00
10806;BME280;5455;53.224;6.000;2023-07-28T11:33:09;100680.31;;;26.20;100.00
10806;BME280;5455;53.224;6.000;2023-07-28T11:35:44;100679.00;;;25.94;100.00
10806;BME280;5455;53.224;6.000;2023-07-28T11:38:12;100680.41;;;25.89;100.00
10806;BME280;5455;53.224;6.000;2023-07-28T11:40:44;100676.03;;;25.97;100.00
10806;BME280;5455;53.224;6.000;2023-07-28T11:43:22;100690.47;;;25.99;100.00
10806;BME280;5455;53.224;6.000;2023-07-28T11:45:50;100684.16;;;25.77;100.00
10806;BME280;5455;53.224;6.000;2023-07-28T11:48:17;100682.16;;;26.05;100.00
10806;BME280;5455;53.224;6.000;2023-07-28T11:50:45;100686.84;;;25.90;100.00
10806;BME280;5455;53.224;6.000;2023-07-28T11:53:12;100682.47;;;26.07;100.00
10806;BME280;5455;53.224;6.000;2023-07-28T11:55:39;100683.31;;;26.25;100.00
10806;BME280;5455;53.224;6.000;2023-07-28T11:58:08;100686.44;;;26.37;100.00
10806;BME280;5455;53.224;6.000;2023-07-28T12:00:39;100690.34;;;26.57;99.06
10806;BME280;5455;53.224;6.000;2023-07-28T12:03:11;100692.22;;;26.78;96.81
10806;BME280;5455;53.224;6.000;2023-07-28T12:05:58;100693.25;;;27.08;96.18
10806;BME280;5455;53.224;6.000;2023-07-28T12:08:40;100698.34;;;26.59;89.28
10806;BME280;5455;53.224;6.000;2023-07-28T12:11:13;100680.16;;;26.42;93.50
10806;BME280;5455;53.224;6.000;2023-07-28T12:13:48;100698.34;;;26.50;92.61
10806;BME280;5455;53.224;6.000;2023-07-28T12:16:41;100700.72;;;26.60;90.85
10806;BME280;5455;53.224;6.000;2023-07-28T12:19:12;100696.63;;;26.07;90.04
10806;BME280;5455;53.224;6.000;2023-07-28T12:21:40;100687.00;;;25.77;94.16
10806;BME280;5455;53.224;6.000;2023-07-28T12:24:07;100696.25;;;25.96;96.00
10806;BME280;5455;53.224;6.000;2023-07-28T12:26:37;100689.16;;;25.73;95.39
10806;BME280;5455;53.224;6.000;2023-07-28T12:29:07;100696.84;;;25.72;94.58
10806;BME280;5455;53.224;6.000;2023-07-28T12:31:38;100693.13;;;25.94;94.61
10806;BME280;5455;53.224;6.000;2023-07-28T12:34:10;100693.78;;;26.07;93.50
10806;BME280;5455;53.224;6.000;2023-07-28T12:36:38;100708.53;;;26.11;94.64
10806;BME280;5455;53.224;6.000;2023-07-28T12:39:09;100701.72;;;25.81;94.92
10806;BME280;5455;53.224;6.000;2023-07-28T12:41:39;100709.63;;;25.86;95.49
10806;BME280;5455;53.224;6.000;2023-07-28T12:44:10;100698.59;;;25.79;94.47
10806;BME280;5455;53.224;6.000;2023-07-28T12:46:42;100697.00;;;25.78;92.75
10806;BME280;5455;53.224;6.000;2023-07-28T12:49:10;100706.34;;;26.06;93.64
10806;BME280;5455;53.224;6.000;2023-07-28T12:51:47;100702.88;;;26.02;92.87
10806;BME280;5455;53.224;6.000;2023-07-28T12:54:17;100702.72;;;26.05;91.21
10806;BME280;5455;53.224;6.000;2023-07-28T12:56:46;100697.06;;;25.96;90.51
10806;BME280;5455;53.224;6.000;2023-07-28T12:59:14;100712.91;;;25.94;88.01
10806;BME280;5455;53.224;6.000;2023-07-28T13:01:45;100705.53;;;25.96;86.58
10806;BME280;5455;53.224;6.000;2023-07-28T13:04:12;100711.91;;;26.37;89.10
10806;BME280;5455;53.224;6.000;2023-07-28T13:06:40;100724.00;;;26.46;86.61
10806;BME280;5455;53.224;6.000;2023-07-28T13:09:08;100720.69;;;26.29;83.75